createdAt,value
2023-03-10T00:00:25.813Z,18.47
2023-03-10T00:02:55.570Z,15.63
2023-03-10T00:05:25.460Z,17.03
2023-03-10T00:07:55.228Z,21.10
2023-03-10T00:10:25.318Z,15.88
2023-03-10T00:12:55.154Z,19.33
2023-03-10T00:15:25.135Z,15.93
2023-03-10T00:17:55.699Z,17.37
2023-03-10T00:20:26.436Z,16.87
2023-03-10T00:22:56.260Z,16.47
2023-03-10T00:25:25.914Z,18.37
2023-03-10T00:27:55.748Z,17.17
2023-03-10T00:30:25.265Z,17.63
2023-03-10T00:32:55.073Z,19.03
2023-03-10T00:35:25.553Z,18.17
2023-03-10T00:37:56.142Z,18.42
2023-03-10T00:40:25.628Z,15.27
2023-03-10T00:42:55.448Z,15.60
2023-03-10T00:45:25.021Z,15.67
2023-03-10T00:47:54.795Z,16.70
2023-03-10T00:50:24.486Z,16.40
2023-03-10T00:52:54.236Z,15.40
2023-03-10T00:55:23.986Z,15.93
2023-03-10T00:57:53.480Z,14.55
2023-03-10T01:00:24.586Z,14.68
2023-03-10T01:02:54.706Z,17.32
2023-03-10T01:05:24.629Z,15.97
2023-03-10T01:07:54.197Z,15.90
2023-03-10T01:10:24.008Z,14.77
2023-03-10T01:12:53.778Z,15.63
2023-03-10T01:15:24.002Z,16.32
2023-03-10T01:17:53.774Z,15.03
2023-03-10T01:20:23.326Z,15.13
2023-03-10T01:22:53.156Z,16.17
2023-03-10T01:25:22.967Z,16.57
2023-03-10T01:27:52.760Z,16.50
2023-03-10T01:30:22.598Z,17.90
2023-03-10T01:32:53.216Z,17.37
2023-03-10T01:35:23.020Z,20.23
2023-03-10T01:37:53.752Z,17.07
2023-03-10T01:40:23.706Z,19.80
2023-03-10T01:42:54.293Z,15.33
2023-03-10T01:45:27.121Z,19.20
2023-03-10T01:47:58.005Z,19.70
2023-03-10T01:50:27.996Z,15.70
2023-03-10T01:52:58.750Z,16.97
2023-03-10T01:55:40.220Z,16.60
2023-03-10T01:58:12.025Z,17.60
2023-03-10T02:00:42.501Z,18.20
2023-03-10T02:03:24.353Z,17.37
2023-03-10T02:06:00.212Z,15.88
2023-03-10T02:08:32.953Z,17.30
2023-03-10T02:11:03.348Z,15.78
2023-03-10T02:13:33.123Z,15.03
2023-03-10T02:16:04.111Z,16.40
2023-03-10T02:18:34.662Z,14.40
2023-03-10T02:21:28.602Z,16.83
2023-03-10T02:24:17.383Z,17.70
2023-03-10T02:26:55.753Z,17.10
2023-03-10T02:32:17.817Z,17.52
2023-03-10T02:34:47.733Z,16.87
2023-03-10T02:37:32.608Z,18.57
2023-03-10T02:40:04.666Z,17.87
2023-03-10T02:42:37.279Z,17.20
2023-03-10T02:45:08.692Z,17.30
2023-03-10T02:47:38.224Z,17.70
2023-03-10T02:50:09.199Z,18.20
2023-03-10T02:52:47.818Z,17.53
2023-03-10T02:55:18.829Z,16.65
2023-03-10T02:57:48.950Z,19.20
2023-03-10T03:00:18.886Z,16.20
2023-03-10T03:02:48.681Z,17.70
2023-03-10T03:05:18.644Z,16.82
2023-03-10T03:07:48.582Z,21.00
2023-03-10T03:10:18.485Z,19.93
2023-03-10T03:12:50.130Z,21.10
2023-03-10T03:15:21.636Z,18.93
2023-03-10T03:17:51.624Z,20.97
2023-03-10T03:20:22.504Z,21.63
2023-03-10T03:22:52.741Z,26.50
2023-03-10T03:25:24.033Z,23.02
2023-03-10T03:27:54.045Z,25.47
2023-03-10T03:30:26.396Z,24.93
2023-03-10T03:32:57.164Z,23.47
2023-03-10T03:35:31.166Z,25.03
2023-03-10T03:38:01.501Z,22.33
2023-03-10T03:40:33.735Z,22.87
2023-03-10T03:43:04.498Z,23.47
2023-03-10T03:45:34.812Z,25.00
2023-03-10T03:48:06.282Z,25.20
2023-03-10T03:50:36.909Z,19.87
2023-03-10T03:53:08.434Z,21.27
2023-03-10T03:55:38.511Z,22.30
2023-03-10T03:58:09.888Z,25.10
2023-03-10T04:00:40.757Z,19.85
2023-03-10T04:03:10.983Z,18.87
2023-03-10T04:05:40.823Z,23.27
2023-03-10T04:08:11.631Z,21.57
2023-03-10T04:10:41.586Z,20.67
2023-03-10T04:13:11.470Z,23.77
2023-03-10T04:15:41.391Z,22.33
2023-03-10T04:18:11.788Z,19.48
2023-03-10T04:20:41.615Z,20.87
2023-03-10T04:23:11.377Z,24.00
2023-03-10T04:25:44.566Z,19.57
2023-03-10T04:28:14.294Z,24.37
2023-03-10T04:30:46.453Z,22.80
2023-03-10T04:33:17.638Z,23.67
2023-03-10T04:35:48.903Z,24.70
2023-03-10T04:38:19.555Z,25.17
2023-03-10T04:40:54.689Z,24.33
2023-03-10T04:43:25.107Z,26.20
2023-03-10T04:45:55.767Z,25.57
2023-03-10T04:48:26.012Z,29.00
2023-03-10T04:50:59.537Z,27.45
2023-03-10T04:53:32.459Z,28.73
2023-03-10T04:56:04.830Z,28.37
2023-03-10T04:58:35.450Z,26.97
2023-03-10T05:01:14.310Z,26.47
2023-03-10T05:03:46.013Z,32.63
2023-03-10T05:06:18.426Z,28.67
2023-03-10T05:08:50.011Z,31.63
2023-03-10T05:11:21.105Z,28.23
2023-03-10T05:13:51.366Z,28.83
2023-03-10T05:16:23.679Z,28.17
2023-03-10T05:18:54.696Z,30.77
2023-03-10T05:21:26.301Z,34.43
2023-03-10T05:23:57.065Z,34.57
2023-03-10T05:26:27.231Z,32.80
2023-03-10T05:28:58.519Z,30.62
2023-03-10T05:31:33.045Z,33.33
2023-03-10T05:34:06.401Z,33.13
2023-03-10T05:36:36.270Z,36.67
2023-03-10T05:39:07.674Z,30.50
2023-03-10T05:41:39.235Z,28.40
2023-03-10T05:44:11.618Z,30.92
2023-03-10T05:46:41.766Z,21.97
2023-03-10T05:49:11.631Z,20.27
2023-03-10T05:51:41.529Z,21.25
2023-03-10T05:54:11.837Z,23.20
2023-03-10T05:56:41.852Z,18.67
2023-03-10T05:59:11.654Z,21.50
2023-03-10T06:01:41.484Z,19.40
2023-03-10T06:04:11.961Z,24.42
2023-03-10T06:06:41.838Z,26.33
2023-03-10T06:09:11.620Z,21.67
2023-03-10T06:11:41.406Z,22.47
2023-03-10T06:14:11.468Z,19.55
2023-03-10T06:16:41.386Z,22.83
2023-03-10T06:19:12.043Z,19.40
2023-03-10T06:21:41.898Z,24.50
2023-03-10T06:24:12.401Z,21.67
2023-03-10T06:26:42.581Z,24.97
2023-03-10T06:29:12.234Z,22.10
2023-03-10T06:31:42.234Z,27.20
2023-03-10T06:34:11.836Z,21.37
2023-03-10T06:36:41.815Z,25.40
2023-03-10T06:39:11.817Z,27.77
2023-03-10T06:41:41.686Z,24.80
2023-03-10T06:44:14.588Z,25.43
2023-03-10T06:46:44.400Z,23.47
2023-03-10T06:49:14.244Z,27.40
2023-03-10T06:51:44.012Z,23.57
2023-03-10T06:54:13.915Z,20.85
2023-03-10T06:56:43.779Z,27.33
2023-03-10T06:59:13.328Z,23.60
2023-03-10T07:01:43.482Z,25.77
2023-03-10T07:04:14.271Z,27.82
2023-03-10T07:06:44.251Z,30.83
2023-03-10T07:09:14.130Z,27.40
2023-03-10T07:11:43.829Z,30.60
2023-03-10T07:14:13.635Z,29.13
2023-03-10T07:16:43.559Z,23.47
2023-03-10T07:19:13.827Z,37.17
2023-03-10T07:21:43.945Z,28.55
2023-03-10T07:24:13.829Z,26.12
2023-03-10T07:26:44.141Z,27.57
2023-03-10T07:29:13.915Z,21.67
2023-03-10T07:31:45.612Z,21.13
2023-03-10T07:34:15.247Z,23.20
2023-03-10T07:36:45.009Z,18.67
2023-03-10T07:39:14.904Z,20.63
2023-03-10T07:41:44.651Z,19.67
2023-03-10T07:44:15.311Z,19.67
2023-03-10T07:46:45.150Z,17.17
2023-03-10T07:49:14.931Z,17.67
2023-03-10T07:51:45.036Z,14.18
2023-03-10T07:54:14.701Z,18.45
2023-03-10T07:56:44.290Z,15.50
2023-03-10T07:59:14.043Z,15.83
2023-03-10T08:01:44.204Z,15.30
2023-03-10T08:04:14.419Z,12.73
2023-03-10T08:06:44.260Z,15.00
2023-03-10T08:09:14.002Z,13.90
2023-03-10T08:11:43.794Z,11.10
2023-03-10T08:14:13.718Z,11.60
2023-03-10T08:16:43.196Z,11.88
2023-03-10T08:19:12.977Z,13.60
2023-03-10T08:21:43.692Z,14.20
2023-03-10T08:24:13.302Z,12.40
2023-03-10T08:26:43.111Z,13.63
2023-03-10T08:29:13.013Z,16.30
2023-03-10T08:31:43.528Z,13.07
2023-03-10T08:34:13.387Z,12.90
2023-03-10T08:36:43.932Z,13.10
2023-03-10T08:39:14.447Z,14.70
2023-03-10T08:41:48.767Z,11.13
2023-03-10T08:44:19.679Z,15.18
2023-03-10T08:46:50.189Z,18.65
2023-03-10T08:49:21.956Z,14.93
2023-03-10T08:51:51.792Z,16.20
2023-03-10T08:54:22.833Z,19.47
2023-03-10T08:56:53.240Z,18.02
2023-03-10T08:59:23.104Z,21.77
2023-03-10T09:01:53.451Z,21.25
2023-03-10T09:04:23.152Z,18.47
2023-03-10T09:06:53.078Z,19.10
2023-03-10T09:09:22.929Z,22.13
2023-03-10T09:11:52.830Z,21.40
2023-03-10T09:14:22.667Z,19.67
2023-03-10T09:16:52.596Z,25.90
2023-03-10T09:19:22.939Z,24.67
2023-03-10T09:21:52.822Z,22.83
2023-03-10T09:24:22.725Z,24.57
2023-03-10T09:26:52.999Z,24.07
2023-03-10T09:29:40.324Z,26.70
2023-03-10T09:31:54.762Z,27.27
2023-03-10T09:34:25.969Z,28.57
2023-03-10T09:36:56.172Z,26.97
2023-03-10T09:39:25.944Z,31.67
2023-03-10T09:42:25.526Z,29.93
2023-03-10T09:45:25.654Z,28.73
2023-03-10T09:48:18.816Z,29.00
2023-03-10T09:50:56.000Z,30.57
2023-03-10T09:53:49.466Z,30.87
2023-03-10T09:56:21.883Z,34.23
2023-03-10T09:58:57.291Z,33.30
2023-03-10T10:01:29.826Z,34.93
2023-03-10T10:04:02.915Z,35.40
2023-03-10T10:06:35.770Z,35.40
2023-03-10T10:09:09.861Z,40.50
2023-03-10T10:11:40.593Z,36.37
2023-03-10T10:14:30.313Z,44.46
2023-03-10T10:17:07.476Z,33.80
2023-03-10T10:19:40.425Z,41.00
2023-03-10T10:22:26.709Z,35.67
2023-03-10T10:25:17.369Z,33.03
2023-03-10T10:27:49.085Z,42.13
2023-03-10T10:30:40.366Z,35.27
2023-03-10T10:33:13.102Z,37.40
2023-03-10T10:35:49.329Z,35.90
2023-03-10T10:40:54.686Z,32.80
2023-03-10T10:43:24.454Z,32.63
2023-03-10T10:45:56.808Z,35.87
2023-03-10T10:48:32.619Z,30.30
2023-03-10T10:51:02.456Z,29.25
2023-03-10T10:53:34.454Z,30.53
2023-03-10T10:56:07.573Z,29.37
2023-03-10T10:58:40.570Z,26.03
2023-03-10T11:01:13.317Z,24.77
2023-03-10T11:03:46.116Z,23.77
2023-03-10T11:06:31.737Z,23.03
2023-03-10T11:09:12.446Z,24.10
2023-03-10T11:12:18.430Z,21.37
2023-03-10T11:15:21.268Z,22.47
2023-03-10T11:17:59.410Z,25.80
2023-03-10T11:20:46.960Z,19.23
2023-03-10T11:23:31.828Z,22.43
2023-03-10T11:26:04.701Z,21.17
2023-03-10T11:28:40.766Z,21.50
2023-03-10T11:34:15.209Z,17.23
2023-03-10T11:36:56.585Z,21.73
2023-03-10T11:39:37.081Z,20.07
2023-03-10T11:42:19.735Z,21.03
2023-03-10T11:45:13.198Z,21.85
2023-03-10T11:48:08.376Z,18.90
2023-03-10T11:50:43.975Z,21.70
2023-03-10T11:53:25.342Z,25.57
2023-03-10T11:55:56.751Z,21.97
2023-03-10T11:58:41.263Z,16.23
2023-03-10T12:01:12.933Z,14.90
2023-03-10T12:03:57.487Z,14.95
2023-03-10T12:06:35.809Z,20.07
2023-03-10T12:09:07.654Z,12.63
2023-03-10T12:11:37.714Z,12.00
2023-03-10T12:14:12.892Z,11.45
2023-03-10T12:16:43.386Z,12.07
2023-03-10T12:19:13.232Z,8.93
2023-03-10T12:21:43.101Z,8.90
2023-03-10T12:24:44.409Z,9.13
2023-03-10T12:27:14.351Z,8.80
2023-03-10T12:29:45.309Z,9.20
2023-03-10T12:32:43.518Z,9.60
2023-03-10T12:35:37.286Z,7.70
2023-03-10T12:38:32.171Z,8.70
2023-03-10T12:41:02.280Z,10.60
2023-03-10T12:43:51.613Z,11.17
2023-03-10T12:46:24.668Z,10.18
2023-03-10T12:49:24.341Z,12.27
2023-03-10T12:52:11.773Z,7.83
2023-03-10T12:54:59.388Z,7.55
2023-03-10T12:57:52.874Z,6.80
2023-03-10T13:00:49.027Z,11.27
2023-03-10T13:03:27.935Z,5.53
2023-03-10T13:06:09.398Z,4.65
2023-03-10T13:08:47.708Z,3.87
2023-03-10T13:11:26.129Z,5.10
2023-03-10T13:14:01.863Z,3.97
2023-03-10T13:16:32.786Z,5.10
2023-03-10T13:19:03.875Z,3.57
2023-03-10T13:21:36.510Z,4.47
2023-03-10T13:24:30.633Z,5.40
2023-03-10T13:27:15.213Z,7.13
2023-03-10T13:30:21.094Z,4.50
2023-03-10T13:32:59.896Z,4.50
2023-03-10T13:35:38.104Z,4.90
2023-03-10T13:38:17.309Z,5.12
2023-03-10T13:40:49.799Z,6.00
2023-03-10T13:43:28.657Z,6.08
2023-03-10T13:46:00.572Z,5.93
2023-03-10T13:48:32.728Z,4.35
2023-03-10T13:51:10.757Z,7.43
2023-03-10T13:53:40.728Z,6.07
2023-03-10T13:59:07.432Z,6.50
2023-03-10T14:01:40.381Z,5.10
2023-03-10T14:04:11.799Z,4.10
2023-03-10T14:06:41.652Z,4.83
2023-03-10T14:09:22.727Z,6.93
2023-03-10T14:11:53.027Z,5.87
2023-03-10T14:14:34.556Z,9.03
2023-03-10T14:17:06.903Z,7.10
2023-03-10T14:19:42.689Z,7.03
2023-03-10T14:22:31.671Z,9.35
2023-03-10T14:25:03.995Z,5.77
2023-03-10T14:27:36.196Z,5.67
2023-03-10T14:30:25.415Z,6.12
2023-03-10T14:32:56.543Z,6.10
2023-03-10T14:35:28.220Z,4.90
2023-03-10T14:37:58.943Z,5.70
2023-03-10T14:40:28.946Z,5.20
2023-03-10T14:43:02.231Z,5.60
2023-03-10T14:45:38.298Z,5.23
2023-03-10T14:48:25.445Z,4.62
2023-03-10T14:50:57.015Z,7.03
2023-03-10T14:53:28.143Z,6.97
2023-03-10T14:56:00.946Z,11.33
2023-03-10T14:58:33.984Z,8.03
2023-03-10T15:01:04.373Z,10.55
2023-03-10T15:03:34.394Z,8.97
2023-03-10T15:06:06.963Z,9.50
2023-03-10T15:08:36.741Z,11.93
2023-03-10T15:11:06.940Z,11.83
2023-03-10T15:13:38.693Z,11.43
2023-03-10T15:16:12.666Z,12.00
2023-03-10T15:18:42.498Z,14.47
2023-03-10T15:21:13.922Z,13.87
2023-03-10T15:23:43.684Z,12.53
2023-03-10T15:26:14.195Z,14.70
2023-03-10T15:28:44.058Z,14.83
2023-03-10T15:31:14.246Z,19.85
2023-03-10T15:33:44.061Z,20.67
2023-03-10T15:36:13.917Z,15.93
2023-03-10T15:38:43.704Z,18.30
2023-03-10T15:41:13.547Z,17.47
2023-03-10T15:43:43.388Z,17.27
2023-03-10T15:46:13.424Z,14.83
2023-03-10T15:48:43.659Z,10.10
2023-03-10T15:51:15.436Z,10.20
2023-03-10T15:53:46.079Z,7.83
2023-03-10T15:56:15.831Z,6.35
2023-03-10T15:58:45.630Z,7.17
2023-03-10T16:01:19.806Z,5.87
2023-03-10T16:03:50.026Z,7.03
2023-03-10T16:06:19.517Z,8.70
2023-03-10T16:08:49.298Z,14.43
2023-03-10T16:11:21.618Z,10.07
2023-03-10T16:13:51.383Z,11.93
2023-03-10T16:16:24.085Z,11.13
2023-03-10T16:18:54.239Z,11.77
2023-03-10T16:21:24.067Z,9.23
2023-03-10T16:23:54.019Z,11.33
2023-03-10T16:26:25.331Z,9.83
2023-03-10T16:28:56.009Z,9.20
2023-03-10T16:31:27.516Z,12.53
2023-03-10T16:33:57.623Z,12.07
2023-03-10T16:36:29.492Z,10.27
2023-03-10T16:38:59.294Z,11.40
2023-03-10T16:41:30.008Z,11.80
2023-03-10T16:44:00.052Z,10.57
2023-03-10T16:46:31.381Z,14.87
2023-03-10T16:49:01.968Z,13.00
2023-03-10T16:51:39.912Z,11.53
2023-03-10T16:54:15.188Z,12.43
2023-03-10T16:56:47.877Z,13.77
2023-03-10T16:59:19.870Z,13.18
2023-03-10T17:01:50.472Z,12.70
2023-03-10T17:04:21.167Z,14.60
2023-03-10T17:06:51.016Z,13.67
2023-03-10T17:09:20.820Z,17.07
2023-03-10T17:11:55.348Z,13.85
2023-03-10T17:14:24.898Z,14.43
2023-03-10T17:16:56.163Z,12.53
2023-03-10T17:19:27.558Z,12.97
2023-03-10T17:21:58.596Z,11.55
2023-03-10T17:24:28.873Z,11.97
2023-03-10T17:26:58.347Z,7.95
2023-03-10T17:29:28.129Z,8.67
2023-03-10T17:31:58.044Z,6.30
2023-03-10T17:34:29.315Z,3.77
2023-03-10T17:36:59.061Z,3.33
2023-03-10T17:39:28.989Z,2.17
2023-03-10T17:41:58.864Z,2.23
2023-03-10T17:44:28.481Z,1.55
2023-03-10T17:46:58.167Z,1.30
2023-03-10T17:49:28.251Z,2.00
2023-03-10T17:51:58.204Z,2.20
2023-03-10T17:54:27.985Z,2.40
2023-03-10T17:56:57.781Z,2.57
2023-03-10T17:59:28.709Z,3.37
2023-03-10T18:01:58.619Z,7.20
2023-03-10T18:04:30.128Z,4.97
2023-03-10T18:07:00.148Z,2.73
2023-03-10T18:09:30.315Z,1.72
2023-03-10T18:12:00.371Z,1.35
2023-03-10T18:14:30.258Z,2.83
2023-03-10T18:17:01.705Z,2.53
2023-03-10T18:19:31.460Z,2.50
2023-03-10T18:22:01.269Z,4.13
2023-03-10T18:24:31.060Z,10.67
2023-03-10T18:27:01.705Z,1.77
2023-03-10T18:29:31.553Z,1.97
2023-03-10T18:32:00.987Z,2.42
2023-03-10T18:34:31.075Z,8.50
2023-03-10T18:37:00.960Z,2.33
2023-03-10T18:39:30.705Z,4.30
2023-03-10T18:42:00.504Z,2.77
2023-03-10T18:44:30.591Z,2.47
2023-03-10T18:47:00.353Z,1.80
2023-03-10T18:49:30.342Z,6.83
2023-03-10T18:52:00.270Z,2.27
2023-03-10T18:54:30.429Z,3.97
2023-03-10T18:57:01.636Z,1.90
2023-03-10T18:59:31.505Z,7.07
2023-03-10T19:02:01.205Z,3.22
2023-03-10T19:04:31.101Z,4.27
2023-03-10T19:07:00.841Z,4.03
2023-03-10T19:09:30.609Z,4.23
2023-03-10T19:12:00.660Z,5.58
2023-03-10T19:14:30.461Z,5.20
2023-03-10T19:17:00.222Z,7.07
2023-03-10T19:19:30.126Z,10.83
2023-03-10T19:21:59.901Z,7.20
2023-03-10T19:24:29.789Z,12.00
2023-03-10T19:26:59.656Z,10.70
2023-03-10T19:29:29.575Z,10.13
2023-03-10T19:31:59.495Z,10.03
2023-03-10T19:34:29.378Z,13.00
2023-03-10T19:36:59.172Z,8.53
2023-03-10T19:39:29.015Z,10.30
2023-03-10T19:41:58.961Z,10.40
2023-03-10T19:44:28.759Z,6.55
2023-03-10T19:46:58.610Z,11.07
2023-03-10T19:49:28.758Z,12.90
2023-03-10T19:51:58.531Z,10.33
2023-03-10T19:54:28.219Z,12.43
2023-03-10T19:56:58.122Z,13.50
2023-03-10T19:59:28.278Z,13.30
2023-03-10T20:01:59.729Z,10.47
2023-03-10T20:04:31.208Z,11.15
2023-03-10T20:07:01.159Z,16.50
2023-03-10T20:09:31.587Z,15.32
2023-03-10T20:12:01.788Z,9.88
2023-03-10T20:14:32.067Z,17.30
2023-03-10T20:17:02.144Z,9.20
2023-03-10T20:19:32.325Z,12.55
2023-03-10T20:22:02.485Z,8.38
2023-03-10T20:24:32.327Z,16.50
2023-03-10T20:27:03.193Z,9.40
2023-03-10T20:29:32.961Z,12.77
2023-03-10T20:32:04.406Z,4.87
2023-03-10T20:34:34.331Z,9.80
2023-03-10T20:37:04.065Z,9.23
2023-03-10T20:39:33.849Z,6.33
2023-03-10T20:42:03.342Z,3.95
2023-03-10T20:44:33.170Z,9.53
2023-03-10T20:47:03.277Z,13.10
2023-03-10T20:49:33.046Z,6.47
2023-03-10T20:52:02.909Z,14.43
2023-03-10T20:54:32.671Z,12.27
2023-03-10T20:57:03.423Z,11.57
2023-03-10T20:59:33.271Z,13.70
2023-03-10T21:02:03.097Z,9.57
2023-03-10T21:04:33.803Z,9.35
2023-03-10T21:07:03.571Z,12.57
2023-03-10T21:09:33.491Z,10.60
2023-03-10T21:12:03.235Z,5.65
2023-03-10T21:14:33.080Z,13.50
2023-03-10T21:17:03.254Z,9.70
2023-03-10T21:19:33.397Z,10.63
2023-03-10T21:22:03.551Z,21.20
2023-03-10T21:24:33.266Z,7.10
2023-03-10T21:27:03.054Z,10.63
2023-03-10T21:29:35.484Z,8.33
2023-03-10T21:32:05.533Z,12.37
2023-03-10T21:34:35.770Z,13.53
2023-03-10T21:37:05.688Z,9.07
2023-03-10T21:39:35.555Z,10.90
2023-03-10T21:42:06.952Z,9.73
2023-03-10T21:44:36.743Z,12.17
2023-03-10T21:47:06.852Z,8.95
2023-03-10T21:49:37.094Z,11.83
2023-03-10T21:52:10.472Z,12.88
2023-03-10T21:54:40.606Z,8.30
2023-03-10T21:57:10.414Z,7.77
2023-03-10T21:59:40.447Z,9.87
2023-03-10T22:02:27.856Z,9.90
2023-03-10T22:04:58.071Z,10.88
2023-03-10T22:07:27.806Z,5.97
2023-03-10T22:09:57.648Z,13.03
2023-03-10T22:12:27.272Z,14.38
2023-03-10T22:14:57.796Z,10.37
2023-03-10T22:17:28.366Z,15.63
2023-03-10T22:19:57.953Z,10.50
2023-03-10T22:22:27.679Z,11.12
2023-03-10T22:24:57.436Z,16.03
2023-03-10T22:27:27.217Z,10.40
2023-03-10T22:29:56.952Z,7.73
2023-03-10T22:32:26.493Z,8.70
2023-03-10T22:34:56.941Z,7.67
2023-03-10T22:37:26.774Z,10.47
2023-03-10T22:39:56.852Z,9.43
2023-03-10T22:42:26.399Z,9.13
2023-03-10T22:44:56.248Z,9.03
2023-03-10T22:47:26.080Z,16.83
2023-03-10T22:49:55.937Z,6.93
2023-03-10T22:52:25.944Z,6.47
2023-03-10T22:54:55.773Z,11.73
2023-03-10T22:57:25.567Z,18.37
2023-03-10T22:59:55.337Z,5.70
2023-03-10T23:02:24.889Z,8.10
2023-03-10T23:04:55.565Z,11.33
2023-03-10T23:07:25.314Z,6.03
2023-03-10T23:09:55.265Z,5.63
2023-03-10T23:12:25.849Z,5.17
2023-03-10T23:14:55.607Z,14.27
2023-03-10T23:17:25.707Z,10.20
2023-03-10T23:19:56.980Z,11.18
2023-03-10T23:22:27.916Z,9.03
2023-03-10T23:24:57.724Z,11.53
2023-03-10T23:27:27.552Z,10.23
2023-03-10T23:29:57.387Z,8.07
2023-03-10T23:32:27.172Z,7.80
2023-03-10T23:34:57.354Z,16.12
2023-03-10T23:37:27.237Z,10.83
2023-03-10T23:39:57.285Z,15.28
2023-03-10T23:42:26.810Z,7.50
2023-03-10T23:44:56.583Z,8.10
2023-03-10T23:47:26.629Z,14.63
2023-03-10T23:49:57.179Z,10.50
2023-03-10T23:52:27.067Z,11.27
2023-03-10T23:54:56.987Z,18.13
2023-03-10T23:57:27.668Z,10.93
2023-03-10T23:59:57.744Z,16.37
